Time;durP1;ratioP1;P1;durP2;ratioP2;P2;SDS_P1;SDS_P2;PMS_P1;PMS_P2;Temp;Humidity;BMP_temperature;BMP_pressure;BME280_temperature;BME280_humidity;BME280_pressure;Samples;Min_cycle;Max_cycle;Signal;HPM_P1;HPM_P2
2021/03/16 06:37:21;;;;;;;20.38;10.27;;;;;;;;;;5563702;23;22964;-78
2021/03/16 06:39:49;;;;;;;21.73;10.73;;;;;;;;;;4942116;29;20043;-73
2021/03/16 06:42:22;;;;;;;18.88;10.68;;;;;;;;;;4941347;29;20026;-74
2021/03/16 06:45:02;;;;;;;17.75;9.98;;;;;;;;;;4941768;29;20126;-71
2021/03/16 06:47:28;;;;;;;18.10;10.55;;;;;;;;;;4958041;29;20023;-70
2021/03/16 06:49:54;;;;;;;16.92;10.70;;;;;;;;;;4940517;29;20028;-71
2021/03/16 06:52:20;;;;;;;24.02;10.55;;;;;;;;;;4957199;29;20028;-70
2021/03/16 06:54:47;;;;;;;18.40;11.02;;;;;;;;;;4940021;29;20513;-74
2021/03/16 06:57:23;;;;;;;17.30;10.18;;;;;;;;;;4957166;29;20023;-72
2021/03/16 06:59:59;;;;;;;;;;;;;;;;;;;;;
2021/03/16 07:02:29;;;;;;;18.13;10.98;;;;;;;;;;4956747;29;20371;-72
2021/03/16 07:04:55;;;;;;;20.25;10.88;;;;;;;;;;4961731;28;20023;-73
2021/03/16 07:07:23;;;;;;;18.10;10.70;;;;;;;;;;4957026;29;20128;-76
2021/03/16 07:09:49;;;;;;;22.42;11.43;;;;;;;;;;4956263;29;20074;-74
2021/03/16 07:12:18;;;;;;;17.33;10.18;;;;;;;;;;4940591;29;20074;-72
2021/03/16 07:14:44;;;;;;;18.80;10.93;;;;;;;;;;4940895;29;20030;-71
2021/03/16 07:17:11;;;;;;;18.98;10.38;;;;;;;;;;4955916;29;20027;-73
2021/03/16 07:19:38;;;;;;;17.40;10.10;;;;;;;;;;4955936;29;20062;-74
2021/03/16 07:22:05;;;;;;;18.13;11.05;;;;;;;;;;4944496;29;20047;-73
2021/03/16 07:24:31;;;;;;;21.75;11.65;;;;;;;;;;4931707;29;20055;-69
2021/03/16 07:27:01;;;;;;;16.88;10.07;;;;;;;;;;4956553;29;20102;-70
2021/03/16 07:29:27;;;;;;;16.63;10.15;;;;;;;;;;4948407;29;20027;-68
2021/03/16 07:31:53;;;;;;;23.88;12.02;;;;;;;;;;4952593;29;20023;-68
2021/03/16 07:34:20;;;;;;;24.42;11.38;;;;;;;;;;4954671;29;20047;-70
2021/03/16 07:36:47;;;;;;;16.98;9.73;;;;;;;;;;4934960;29;20032;-67
2021/03/16 07:39:18;;;;;;;22.65;14.85;;;;;;;;;;4952943;29;20036;-68
2021/03/16 07:41:44;;;;;;;22.13;12.20;;;;;;;;;;4945864;29;20371;-69
2021/03/16 07:44:12;;;;;;;18.60;11.90;;;;;;;;;;4952762;29;20021;-69
2021/03/16 07:46:40;;;;;;;21.48;12.45;;;;;;;;;;4953824;29;20115;-67
2021/03/16 07:49:06;;;;;;;18.90;11.80;;;;;;;;;;4948181;29;20051;-69
2021/03/16 07:51:35;;;;;;;21.88;12.30;;;;;;;;;;4947388;29;20035;-67
2021/03/16 07:54:03;;;;;;;23.15;12.20;;;;;;;;;;4955778;29;20027;-67
2021/03/16 07:56:31;;;;;;;21.33;11.73;;;;;;;;;;4956310;29;20051;-67
2021/03/16 07:58:57;;;;;;;19.27;11.18;;;;;;;;;;4949445;29;20028;-67
2021/03/16 08:01:23;;;;;;;21.35;8.80;;;;;;;;;;4957338;29;20039;-72
2021/03/16 08:03:51;;;;;;;19.75;9.70;;;;;;;;;;4957571;29;20028;-70
2021/03/16 08:06:26;;;;;;;20.27;8.82;;;;;;;;;;4956888;28;20031;-72
2021/03/16 08:08:53;;;;;;;21.38;11.60;;;;;;;;;;4939711;29;20463;-71
2021/03/16 08:11:20;;;;;;;20.00;9.75;;;;;;;;;;4956582;29;20118;-68
2021/03/16 08:13:56;;;;;;;21.13;11.75;;;;;;;;;;4936718;29;20270;-72
2021/03/16 08:16:33;;;;;;;26.63;9.40;;;;;;;;;;4938565;29;20016;-70
2021/03/16 08:19:11;;;;;;;15.65;10.82;;;;;;;;;;4939008;29;20474;-72
2021/03/16 08:21:38;;;;;;;19.85;11.60;;;;;;;;;;4953697;29;20475;-70
2021/03/16 08:24:11;;;;;;;20.15;12.10;;;;;;;;;;4955659;29;20075;-70
2021/03/16 08:26:37;;;;;;;;;;;;;;;;;;4956961;29;20039;-68
2021/03/16 08:29:03;;;;;;;16.23;8.35;;;;;;;;;;4956457;29;20013;-72
2021/03/16 08:31:32;;;;;;;20.73;8.98;;;;;;;;;;4939396;29;20062;-68
2021/03/16 08:34:18;;;;;;;19.13;10.95;;;;;;;;;;4938403;29;20066;-67
2021/03/16 08:36:51;;;;;;;14.90;8.93;;;;;;;;;;4951275;29;20110;-68
2021/03/16 08:39:23;;;;;;;14.27;7.15;;;;;;;;;;4952259;28;20077;-68
2021/03/16 08:41:53;;;;;;;12.45;5.20;;;;;;;;;;4955985;29;20034;-67
2021/03/16 08:44:19;;;;;;;16.60;5.60;;;;;;;;;;4955460;29;20110;-67
2021/03/16 08:46:45;;;;;;;15.90;9.00;;;;;;;;;;4955977;29;20046;-68
2021/03/16 08:49:16;;;;;;;16.58;8.10;;;;;;;;;;4939074;29;20034;-67
2021/03/16 08:51:42;;;;;;;17.08;9.77;;;;;;;;;;4956558;29;20027;-69
2021/03/16 08:54:17;;;;;;;13.88;9.80;;;;;;;;;;4957065;29;20035;-67
2021/03/16 08:56:48;;;;;;;20.88;8.25;;;;;;;;;;4939272;29;20027;-66
2021/03/16 08:59:14;;;;;;;17.23;12.23;;;;;;;;;;4951289;28;20030;-67
2021/03/16 09:02:09;;;;;;;14.50;9.27;;;;;;;;;;4953937;29;20495;-69
2021/03/16 09:05:05;;;;;;;14.90;10.25;;;;;;;;;;4911705;29;20431;-66
2021/03/16 09:07:36;;;;;;;15.85;10.32;;;;;;;;;;4953227;28;20031;-65
2021/03/16 09:10:04;;;;;;;15.27;10.93;;;;;;;;;;4953436;29;20035;-65
2021/03/16 09:12:30;;;;;;;17.48;10.88;;;;;;;;;;4950948;29;20042;-66
2021/03/16 09:15:09;;;;;;;15.43;10.40;;;;;;;;;;4950640;29;20382;-67
2021/03/16 09:17:36;;;;;;;14.25;10.43;;;;;;;;;;4954878;29;20027;-65
2021/03/16 09:20:28;;;;;;;16.20;10.50;;;;;;;;;;4954966;29;20106;-66
2021/03/16 09:22:54;;;;;;;;;;;;;;;;;;4949509;29;20151;-66
2021/03/16 09:25:25;;;;;;;15.35;10.32;;;;;;;;;;4955702;29;19906;-66
2021/03/16 09:27:51;;;;;;;14.82;10.38;;;;;;;;;;4955255;29;20034;-67
2021/03/16 09:30:19;;;;;;;15.80;10.23;;;;;;;;;;4954819;29;20035;-66
2021/03/16 09:33:14;;;;;;;16.15;10.98;;;;;;;;;;4954103;29;20110;-66
2021/03/16 09:36:24;;;;;;;15.32;10.75;;;;;;;;;;4950017;28;20039;-66
2021/03/16 09:38:56;;;;;;;16.33;11.43;;;;;;;;;;4940372;29;20505;-68
2021/03/16 09:41:23;;;;;;;16.33;11.87;;;;;;;;;;4951222;29;20054;-65
2021/03/16 09:43:49;;;;;;;20.90;11.93;;;;;;;;;;4953372;29;20066;-66
2021/03/16 09:46:22;;;;;;;18.70;12.35;;;;;;;;;;4941468;29;20172;-69
2021/03/16 09:48:49;;;;;;;19.92;11.95;;;;;;;;;;4944461;29;20035;-65
2021/03/16 09:51:17;;;;;;;21.15;11.25;;;;;;;;;;4952785;29;20035;-66
2021/03/16 09:53:47;;;;;;;16.38;10.50;;;;;;;;;;4953308;29;20031;-65
2021/03/16 09:56:13;;;;;;;18.55;10.98;;;;;;;;;;4944874;29;20031;-66
2021/03/16 09:58:46;;;;;;;19.75;13.20;;;;;;;;;;4954676;29;20119;-66
2021/03/16 10:01:12;;;;;;;17.02;11.40;;;;;;;;;;4955282;29;20114;-66
2021/03/16 10:04:21;;;;;;;17.02;11.65;;;;;;;;;;4954173;29;20023;-65
2021/03/16 10:06:47;;;;;;;19.77;12.40;;;;;;;;;;4906283;29;20114;-66
2021/03/16 10:09:16;;;;;;;16.33;11.45;;;;;;;;;;4954602;29;20031;-65
2021/03/16 10:11:42;;;;;;;16.42;11.73;;;;;;;;;;4952619;29;20547;-66
2021/03/16 10:14:09;;;;;;;16.90;11.35;;;;;;;;;;4954404;29;20039;-67
2021/03/16 10:17:17;;;;;;;19.33;12.00;;;;;;;;;;4954743;29;20049;-65
2021/03/16 10:19:59;;;;;;;19.10;12.02;;;;;;;;;;4937945;29;20031;-68
2021/03/16 10:22:35;;;;;;;20.10;11.80;;;;;;;;;;4953420;29;20121;-66
2021/03/16 10:25:03;;;;;;;32.60;19.13;;;;;;;;;;4938579;29;20118;-65
2021/03/16 10:27:31;;;;;;;24.52;14.32;;;;;;;;;;4953396;29;20099;-65
2021/03/16 10:29:57;;;;;;;24.92;17.67;;;;;;;;;;4953001;29;20082;-65
2021/03/16 10:32:23;;;;;;;19.15;12.70;;;;;;;;;;4954825;29;20035;-66
2021/03/16 10:34:50;;;;;;;18.40;11.80;;;;;;;;;;4947056;29;20027;-66
2021/03/16 10:37:30;;;;;;;21.70;12.32;;;;;;;;;;4955419;29;20021;-65
2021/03/16 10:39:59;;;;;;;21.70;11.43;;;;;;;;;;4960445;28;20046;-67
2021/03/16 10:42:26;;;;;;;16.95;11.48;;;;;;;;;;4936534;28;20050;-69
2021/03/16 10:44:52;;;;;;;19.52;11.80;;;;;;;;;;4964695;28;20019;-66
2021/03/16 10:47:18;;;;;;;21.42;11.60;;;;;;;;;;4947983;28;20015;-69
2021/03/16 10:49:50;;;;;;;19.77;12.05;;;;;;;;;;4944570;28;20035;-67
2021/03/16 10:52:22;;;;;;;17.52;11.82;;;;;;;;;;4968998;28;20478;-67
2021/03/16 10:54:48;;;;;;;18.02;10.50;;;;;;;;;;4960569;28;20023;-69
2021/03/16 10:57:15;;;;;;;14.82;10.13;;;;;;;;;;4955135;28;20478;-68
2021/03/16 10:59:41;;;;;;;15.20;10.77;;;;;;;;;;4953954;29;20090;-70
2021/03/16 11:02:14;;;;;;;20.88;11.90;;;;;;;;;;4955121;29;20033;-73
2021/03/16 11:04:52;;;;;;;17.42;10.73;;;;;;;;;;4961012;28;20020;-71
2021/03/16 11:07:18;;;;;;;16.65;10.52;;;;;;;;;;4940687;28;20038;-69
2021/03/16 11:09:45;;;;;;;18.10;11.15;;;;;;;;;;4965121;28;20109;-69
2021/03/16 11:12:11;;;;;;;17.77;11.10;;;;;;;;;;4965040;28;20030;-67
2021/03/16 11:14:38;;;;;;;21.13;10.50;;;;;;;;;;4956062;28;20023;-72
2021/03/16 11:17:04;;;;;;;13.65;8.95;;;;;;;;;;4942094;28;20031;-69
2021/03/16 11:19:34;;;;;;;16.23;8.30;;;;;;;;;;4962022;28;20015;-69
2021/03/16 11:22:01;;;;;;;12.73;8.30;;;;;;;;;;4962593;28;20756;-71
2021/03/16 11:24:27;;;;;;;17.02;10.85;;;;;;;;;;4964775;28;20059;-67
2021/03/16 11:26:53;;;;;;;17.80;10.63;;;;;;;;;;4969225;28;20030;-69
2021/03/16 11:29:20;;;;;;;12.35;7.43;;;;;;;;;;4939840;28;20398;-69
2021/03/16 11:31:46;;;;;;;14.13;6.78;;;;;;;;;;4962944;28;20068;-69
2021/03/16 11:34:12;;;;;;;14.45;9.73;;;;;;;;;;4959826;28;20046;-70
2021/03/16 11:36:38;;;;;;;16.33;10.80;;;;;;;;;;4940764;28;20394;-70
2021/03/16 11:39:04;;;;;;;12.80;9.38;;;;;;;;;;4927585;29;20505;-68
2021/03/16 11:41:31;;;;;;;10.60;6.65;;;;;;;;;;4920221;29;20035;-70
2021/03/16 11:43:57;;;;;;;14.00;8.90;;;;;;;;;;4936459;29;20031;-69
2021/03/16 11:46:23;;;;;;;18.55;12.23;;;;;;;;;;4937542;29;20024;-69
2021/03/16 11:48:49;;;;;;;16.80;11.20;;;;;;;;;;4920442;29;20494;-68
2021/03/16 11:51:15;;;;;;;16.00;9.10;;;;;;;;;;4920781;29;20039;-70
2021/03/16 11:53:41;;;;;;;15.68;9.77;;;;;;;;;;4937904;29;20028;-71
2021/03/16 11:56:07;;;;;;;12.75;7.85;;;;;;;;;;4920738;29;20483;-71
2021/03/16 11:58:34;;;;;;;12.70;7.20;;;;;;;;;;4928105;29;20047;-71
2021/03/16 12:01:01;;;;;;;15.07;8.75;;;;;;;;;;4935672;29;20523;-70
2021/03/16 12:03:28;;;;;;;11.73;8.15;;;;;;;;;;4936588;29;20071;-69
2021/03/16 12:05:54;;;;;;;17.42;8.23;;;;;;;;;;4928689;29;20015;-71
2021/03/16 12:08:27;;;;;;;15.25;9.65;;;;;;;;;;4912277;29;20106;-72
2021/03/16 12:11:04;;;;;;;14.98;10.93;;;;;;;;;;4912894;29;20055;-72
2021/03/16 12:13:30;;;;;;;21.00;8.73;;;;;;;;;;4917625;29;20028;-69
2021/03/16 12:15:56;;;;;;;15.85;10.05;;;;;;;;;;4925540;29;20042;-70
2021/03/16 12:18:22;;;;;;;13.65;10.48;;;;;;;;;;4936830;29;20028;-71
2021/03/16 12:20:50;;;;;;;15.00;9.90;;;;;;;;;;4936065;29;20102;-71
2021/03/16 12:23:16;;;;;;;16.83;10.27;;;;;;;;;;4921221;29;20020;-69
2021/03/16 12:25:43;;;;;;;14.48;10.45;;;;;;;;;;4921674;29;20031;-69
2021/03/16 12:28:09;;;;;;;16.58;12.38;;;;;;;;;;4920862;29;20038;-72
2021/03/16 12:30:36;;;;;;;14.73;10.40;;;;;;;;;;4935210;29;20036;-72
2021/03/16 12:33:02;;;;;;;14.85;10.57;;;;;;;;;;4936549;29;20098;-67
2021/03/16 12:35:28;;;;;;;16.83;11.55;;;;;;;;;;4919190;29;20016;-70
2021/03/16 12:37:55;;;;;;;17.98;11.40;;;;;;;;;;4924581;29;20079;-65
2021/03/16 12:40:21;;;;;;;14.50;10.40;;;;;;;;;;4956119;29;20027;-70
2021/03/16 12:42:47;;;;;;;18.05;11.52;;;;;;;;;;4955454;29;20027;-68
2021/03/16 12:45:14;;;;;;;15.85;8.75;;;;;;;;;;4940322;29;20099;-71
2021/03/16 12:47:40;;;;;;;14.48;8.88;;;;;;;;;;4954920;29;20074;-71
2021/03/16 12:50:06;;;;;;;17.13;9.45;;;;;;;;;;4952898;29;20166;-71
2021/03/16 12:52:33;;;;;;;14.45;8.32;;;;;;;;;;4951056;29;20027;-73
2021/03/16 12:54:59;;;;;;;14.50;9.32;;;;;;;;;;4952294;29;20379;-72
2021/03/16 12:57:25;;;;;;;18.38;10.85;;;;;;;;;;4949865;29;20026;-69
2021/03/16 12:59:51;;;;;;;16.45;11.48;;;;;;;;;;4954066;29;20035;-70
2021/03/16 13:02:17;;;;;;;16.17;10.55;;;;;;;;;;4939672;29;20023;-68
2021/03/16 13:04:43;;;;;;;15.93;10.45;;;;;;;;;;4954102;29;20494;-67
2021/03/16 13:07:09;;;;;;;17.73;11.35;;;;;;;;;;4954215;29;20035;-67
2021/03/16 13:09:36;;;;;;;15.48;10.48;;;;;;;;;;4952954;29;20031;-66
2021/03/16 13:12:02;;;;;;;18.95;12.38;;;;;;;;;;4953917;29;20114;-66
2021/03/16 13:14:29;;;;;;;20.45;13.00;;;;;;;;;;4952826;28;20035;-68
2021/03/16 13:16:55;;;;;;;16.40;11.25;;;;;;;;;;4951235;29;20024;-67
2021/03/16 13:19:21;;;;;;;18.38;11.98;;;;;;;;;;4952416;29;20031;-67
2021/03/16 13:21:52;;;;;;;17.38;12.00;;;;;;;;;;4952716;29;20054;-68
2021/03/16 13:24:19;;;;;;;20.25;12.38;;;;;;;;;;4952343;29;20027;-67
2021/03/16 13:26:45;;;;;;;15.18;10.93;;;;;;;;;;4952450;29;20098;-69
2021/03/16 13:29:11;;;;;;;17.85;12.13;;;;;;;;;;4953315;29;20102;-67
2021/03/16 13:31:37;;;;;;;19.67;12.15;;;;;;;;;;4937316;29;20562;-67
2021/03/16 13:34:03;;;;;;;17.67;11.85;;;;;;;;;;4948014;29;20387;-68
2021/03/16 13:36:29;;;;;;;19.42;12.60;;;;;;;;;;4954148;29;20086;-69
2021/03/16 13:38:56;;;;;;;21.17;12.23;;;;;;;;;;4953059;29;20426;-69
2021/03/16 13:41:26;;;;;;;21.15;13.65;;;;;;;;;;4950195;29;20019;-67
2021/03/16 13:43:52;;;;;;;18.17;13.13;;;;;;;;;;4944209;29;20023;-70
2021/03/16 13:46:19;;;;;;;19.42;14.25;;;;;;;;;;4948537;28;20124;-70
2021/03/16 13:48:45;;;;;;;15.82;12.30;;;;;;;;;;4952740;29;20102;-67
2021/03/16 13:51:11;;;;;;;17.17;12.73;;;;;;;;;;4936333;29;20027;-69
2021/03/16 13:53:39;;;;;;;17.30;11.48;;;;;;;;;;4952400;29;20059;-70
2021/03/16 13:56:05;;;;;;;18.08;12.48;;;;;;;;;;4953110;29;20035;-69
2021/03/16 13:58:32;;;;;;;16.55;11.80;;;;;;;;;;4953248;29;20031;-66
2021/03/16 14:00:58;;;;;;;19.83;12.40;;;;;;;;;;4949996;29;20467;-67
2021/03/16 14:03:24;;;;;;;15.35;11.65;;;;;;;;;;4946562;29;20086;-67
2021/03/16 14:05:58;;;;;;;16.20;11.07;;;;;;;;;;4953341;29;20029;-67
2021/03/16 14:08:59;;;;;;;17.00;12.05;;;;;;;;;;4942343;29;20039;-68
2021/03/16 14:11:29;;;;;;;15.98;11.57;;;;;;;;;;4953743;29;20027;-67
2021/03/16 14:14:06;;;;;;;16.35;11.43;;;;;;;;;;4945008;29;20019;-66
2021/03/16 14:16:43;;;;;;;18.58;12.05;;;;;;;;;;4951621;29;20051;-67
2021/03/16 14:19:09;;;;;;;20.17;12.43;;;;;;;;;;4945002;29;20763;-68
2021/03/16 14:21:35;;;;;;;17.83;11.98;;;;;;;;;;4938633;29;20028;-67
2021/03/16 14:24:01;;;;;;;16.60;12.05;;;;;;;;;;4928695;29;20019;-67
2021/03/16 14:26:27;;;;;;;17.30;11.05;;;;;;;;;;4954784;29;20066;-68
2021/03/16 14:28:53;;;;;;;15.68;10.80;;;;;;;;;;4954443;29;20082;-68
2021/03/16 14:31:19;;;;;;;15.18;11.00;;;;;;;;;;4938085;29;20034;-68
2021/03/16 14:33:46;;;;;;;15.18;10.63;;;;;;;;;;4954707;29;20102;-68
2021/03/16 14:36:23;;;;;;;17.63;11.35;;;;;;;;;;4942411;29;20605;-69
2021/03/16 14:38:51;;;;;;;18.77;10.77;;;;;;;;;;4966860;28;20102;-68
2021/03/16 14:41:17;;;;;;;16.70;11.20;;;;;;;;;;4963283;28;20035;-70
2021/03/16 14:43:43;;;;;;;15.20;10.50;;;;;;;;;;4937955;29;20034;-69
2021/03/16 14:46:09;;;;;;;15.27;10.55;;;;;;;;;;4954913;29;20058;-68
2021/03/16 14:48:35;;;;;;;16.35;11.27;;;;;;;;;;4954184;29;20103;-69
2021/03/16 14:51:01;;;;;;;17.42;10.93;;;;;;;;;;4937079;29;20491;-68
2021/03/16 14:53:28;;;;;;;15.63;11.48;;;;;;;;;;4937342;29;20028;-68
2021/03/16 14:55:54;;;;;;;16.83;11.05;;;;;;;;;;4954173;29;20026;-69
2021/03/16 14:58:21;;;;;;;13.73;10.20;;;;;;;;;;4939091;29;20034;-67
2021/03/16 15:00:48;;;;;;;17.13;10.35;;;;;;;;;;4958026;29;20022;-71
2021/03/16 15:03:15;;;;;;;19.67;12.32;;;;;;;;;;4957560;29;20027;-69
2021/03/16 15:05:41;;;;;;;12.38;9.40;;;;;;;;;;4956796;29;20075;-70
2021/03/16 15:08:07;;;;;;;23.00;9.60;;;;;;;;;;4956663;29;20053;-67
2021/03/16 15:10:34;;;;;;;14.85;9.80;;;;;;;;;;4940385;29;20029;-68
2021/03/16 15:13:00;;;;;;;12.68;9.90;;;;;;;;;;4956780;29;20025;-69
2021/03/16 15:15:26;;;;;;;13.65;10.02;;;;;;;;;;4938445;29;20417;-71
2021/03/16 15:17:53;;;;;;;16.20;10.32;;;;;;;;;;4955443;29;20062;-73
2021/03/16 15:20:20;;;;;;;16.40;10.27;;;;;;;;;;4938516;29;20030;-70
2021/03/16 15:22:46;;;;;;;18.85;10.52;;;;;;;;;;4938130;29;20456;-68
2021/03/16 15:25:13;;;;;;;15.65;10.45;;;;;;;;;;4938134;29;20028;-68
2021/03/16 15:27:39;;;;;;;17.15;10.68;;;;;;;;;;4940416;29;20110;-70
2021/03/16 15:30:06;;;;;;;16.95;10.55;;;;;;;;;;4937474;29;20479;-70
2021/03/16 15:32:32;;;;;;;14.45;9.73;;;;;;;;;;4954908;29;20062;-69
2021/03/16 15:35:00;;;;;;;12.25;9.55;;;;;;;;;;4957531;29;20027;-66
2021/03/16 15:37:26;;;;;;;15.63;10.40;;;;;;;;;;4956393;28;20030;-68
2021/03/16 15:39:52;;;;;;;17.27;10.77;;;;;;;;;;4956762;29;20027;-69
2021/03/16 15:42:18;;;;;;;16.40;10.45;;;;;;;;;;4956886;29;20027;-68
2021/03/16 15:44:44;;;;;;;15.45;10.60;;;;;;;;;;4956543;29;20023;-67
2021/03/16 15:47:10;;;;;;;15.45;10.10;;;;;;;;;;4956237;29;20479;-69
2021/03/16 15:49:37;;;;;;;21.55;11.27;;;;;;;;;;4956814;29;20031;-69
2021/03/16 15:52:03;;;;;;;16.17;10.50;;;;;;;;;;4955878;29;20031;-70
2021/03/16 15:54:41;;;;;;;18.92;12.13;;;;;;;;;;4957392;29;20046;-70
2021/03/16 15:57:08;;;;;;;18.30;11.40;;;;;;;;;;4955125;29;20019;-67
2021/03/16 15:59:34;;;;;;;20.17;10.77;;;;;;;;;;4956516;29;20039;-68
2021/03/16 16:02:01;;;;;;;15.35;10.18;;;;;;;;;;4955913;29;20023;-67
2021/03/16 16:04:27;;;;;;;18.38;9.85;;;;;;;;;;4955930;29;20063;-68
2021/03/16 16:06:53;;;;;;;14.40;9.60;;;;;;;;;;4940009;29;20061;-69
2021/03/16 16:09:19;;;;;;;16.02;10.05;;;;;;;;;;4956592;28;20042;-67
2021/03/16 16:11:45;;;;;;;15.20;10.10;;;;;;;;;;4939716;29;20114;-68
2021/03/16 16:14:11;;;;;;;14.38;9.35;;;;;;;;;;4956903;29;20019;-68
2021/03/16 16:16:37;;;;;;;12.25;8.77;;;;;;;;;;4956213;29;20027;-69
2021/03/16 16:19:04;;;;;;;21.48;12.63;;;;;;;;;;4937815;29;20043;-68
2021/03/16 16:21:30;;;;;;;14.98;9.05;;;;;;;;;;4939351;29;20073;-68
2021/03/16 16:23:56;;;;;;;13.02;9.32;;;;;;;;;;4938883;29;20023;-68
2021/03/16 16:26:22;;;;;;;12.90;8.27;;;;;;;;;;4938091;29;20375;-69
2021/03/16 16:28:49;;;;;;;12.32;8.60;;;;;;;;;;4956749;29;20023;-68
2021/03/16 16:31:15;;;;;;;15.07;9.13;;;;;;;;;;4939609;29;20399;-69
2021/03/16 16:33:41;;;;;;;14.25;8.65;;;;;;;;;;4939051;29;20041;-69
2021/03/16 16:36:07;;;;;;;14.13;7.70;;;;;;;;;;4939502;29;20027;-67
2021/03/16 16:38:34;;;;;;;14.23;8.70;;;;;;;;;;4939076;29;20102;-68
2021/03/16 16:41:01;;;;;;;14.18;8.07;;;;;;;;;;4956083;29;20036;-67
2021/03/16 16:43:27;;;;;;;16.40;8.73;;;;;;;;;;4956024;29;20023;-68
2021/03/16 16:45:53;;;;;;;15.63;8.68;;;;;;;;;;4954904;29;20025;-68
2021/03/16 16:48:20;;;;;;;17.08;8.10;;;;;;;;;;4956007;29;20019;-68
2021/03/16 16:50:46;;;;;;;12.38;7.80;;;;;;;;;;4939107;29;20102;-67
2021/03/16 16:53:12;;;;;;;16.73;8.73;;;;;;;;;;4955823;29;20110;-69
2021/03/16 16:55:38;;;;;;;13.23;8.70;;;;;;;;;;4956507;29;20031;-68
2021/03/16 16:58:04;;;;;;;12.20;8.60;;;;;;;;;;4956437;29;20102;-70
2021/03/16 17:00:31;;;;;;;15.85;8.18;;;;;;;;;;4938505;29;20019;-69
2021/03/16 17:02:57;;;;;;;13.75;8.63;;;;;;;;;;4939076;29;20031;-67
2021/03/16 17:05:25;;;;;;;14.88;8.18;;;;;;;;;;4955511;29;20019;-69
2021/03/16 17:07:52;;;;;;;12.63;8.07;;;;;;;;;;4938437;29;20157;-68
2021/03/16 17:10:19;;;;;;;15.50;8.38;;;;;;;;;;4953535;29;20097;-67
2021/03/16 17:12:45;;;;;;;14.45;8.10;;;;;;;;;;4938386;29;20034;-68
2021/03/16 17:15:12;;;;;;;15.55;8.40;;;;;;;;;;4955741;29;20088;-68
2021/03/16 17:17:38;;;;;;;15.15;7.95;;;;;;;;;;4955826;29;20074;-67
2021/03/16 17:20:05;;;;;;;13.18;8.07;;;;;;;;;;4955544;29;20031;-69
2021/03/16 17:22:31;;;;;;;13.13;8.00;;;;;;;;;;4954934;28;20075;-69
2021/03/16 17:25:00;;;;;;;13.45;8.00;;;;;;;;;;4955585;29;20031;-67
2021/03/16 17:27:27;;;;;;;15.48;8.90;;;;;;;;;;4938052;29;20031;-68
2021/03/16 17:29:53;;;;;;;17.27;8.98;;;;;;;;;;4937529;29;20483;-68
2021/03/16 17:32:19;;;;;;;12.40;8.02;;;;;;;;;;4937547;29;20020;-69
2021/03/16 17:34:45;;;;;;;12.23;7.70;;;;;;;;;;4950163;29;20539;-70
2021/03/16 17:37:11;;;;;;;13.70;8.68;;;;;;;;;;4953651;29;20034;-68
2021/03/16 17:39:38;;;;;;;11.90;8.00;;;;;;;;;;4937143;29;20114;-69
2021/03/16 17:42:04;;;;;;;18.30;9.48;;;;;;;;;;4953796;29;20078;-69
2021/03/16 17:44:30;;;;;;;13.27;8.80;;;;;;;;;;4938072;29;20023;-67
2021/03/16 17:46:56;;;;;;;13.80;8.57;;;;;;;;;;4955219;29;20019;-66
2021/03/16 17:49:22;;;;;;;14.40;7.50;;;;;;;;;;4951212;29;20035;-67
2021/03/16 17:51:49;;;;;;;17.90;8.75;;;;;;;;;;4955433;29;20130;-66
2021/03/16 17:54:15;;;;;;;16.05;8.77;;;;;;;;;;4955588;29;20116;-67
2021/03/16 17:56:41;;;;;;;14.20;9.00;;;;;;;;;;4937943;29;20030;-68
2021/03/16 17:59:07;;;;;;;16.45;8.77;;;;;;;;;;4955650;29;20058;-68
2021/03/16 18:01:34;;;;;;;15.48;8.95;;;;;;;;;;4954248;29;20569;-69
2021/03/16 18:04:00;;;;;;;15.57;8.77;;;;;;;;;;4954253;29;20459;-67
2021/03/16 18:06:26;;;;;;;16.13;8.50;;;;;;;;;;4954386;29;20019;-67
2021/03/16 18:08:52;;;;;;;13.27;8.50;;;;;;;;;;4936946;29;20027;-67
2021/03/16 18:11:18;;;;;;;16.02;8.93;;;;;;;;;;4953755;29;20086;-68
2021/03/16 18:13:44;;;;;;;15.98;9.93;;;;;;;;;;4953896;29;20023;-67
2021/03/16 18:16:10;;;;;;;12.45;8.43;;;;;;;;;;4953801;29;20035;-68
2021/03/16 18:18:37;;;;;;;15.30;9.07;;;;;;;;;;4953043;29;20460;-67
2021/03/16 18:21:03;;;;;;;14.90;9.48;;;;;;;;;;4949029;29;20026;-68
2021/03/16 18:23:29;;;;;;;15.45;8.77;;;;;;;;;;4953573;29;20055;-68
2021/03/16 18:25:56;;;;;;;16.95;8.90;;;;;;;;;;4953558;29;20031;-69
2021/03/16 18:28:22;;;;;;;18.73;8.88;;;;;;;;;;4952584;29;20031;-71
2021/03/16 18:30:48;;;;;;;17.50;9.35;;;;;;;;;;4936035;29;20027;-68
2021/03/16 18:33:14;;;;;;;13.40;8.30;;;;;;;;;;4937492;29;20082;-67
2021/03/16 18:35:40;;;;;;;14.15;7.65;;;;;;;;;;4940598;29;20027;-69
2021/03/16 18:38:07;;;;;;;15.27;8.48;;;;;;;;;;4958122;28;20124;-68
2021/03/16 18:40:33;;;;;;;15.55;8.10;;;;;;;;;;4940378;29;20031;-69
2021/03/16 18:42:59;;;;;;;14.60;7.50;;;;;;;;;;4957155;29;20351;-68
2021/03/16 18:45:25;;;;;;;15.77;7.97;;;;;;;;;;4957067;29;20050;-67
2021/03/16 18:47:51;;;;;;;10.18;6.40;;;;;;;;;;4957398;29;20414;-68
2021/03/16 18:50:19;;;;;;;9.93;6.45;;;;;;;;;;4938726;29;20031;-67
2021/03/16 18:52:45;;;;;;;12.27;7.45;;;;;;;;;;4956612;29;20031;-70
2021/03/16 18:55:11;;;;;;;14.00;7.75;;;;;;;;;;4939815;29;20042;-69
2021/03/16 18:57:37;;;;;;;12.40;6.88;;;;;;;;;;4939074;29;20040;-70
2021/03/16 19:00:05;;;;;;;15.02;6.40;;;;;;;;;;4957000;29;20027;-71
2021/03/16 19:02:31;;;;;;;15.32;7.57;;;;;;;;;;4957299;29;20082;-69
2021/03/16 19:04:57;;;;;;;9.85;6.57;;;;;;;;;;4939603;29;20145;-69
2021/03/16 19:07:23;;;;;;;14.40;6.65;;;;;;;;;;4956905;29;20019;-71
2021/03/16 19:09:49;;;;;;;14.68;7.55;;;;;;;;;;4956670;29;20111;-70
2021/03/16 19:12:15;;;;;;;9.68;5.60;;;;;;;;;;4939472;29;20059;-72
2021/03/16 19:14:42;;;;;;;15.23;7.88;;;;;;;;;;4939387;29;20470;-69
2021/03/16 19:17:08;;;;;;;10.45;6.47;;;;;;;;;;4956774;29;20390;-69
2021/03/16 19:19:34;;;;;;;14.55;6.93;;;;;;;;;;4939059;29;20071;-68
2021/03/16 19:22:00;;;;;;;8.90;5.53;;;;;;;;;;4939632;29;20026;-69
2021/03/16 19:24:26;;;;;;;10.73;5.90;;;;;;;;;;4956809;29;20477;-69
2021/03/16 19:26:52;;;;;;;10.30;6.28;;;;;;;;;;4956492;29;20070;-72
2021/03/16 19:29:19;;;;;;;8.77;6.20;;;;;;;;;;4939850;29;20027;-69
2021/03/16 19:31:47;;;;;;;9.88;6.35;;;;;;;;;;4956875;29;20058;-71
2021/03/16 19:34:13;;;;;;;13.15;5.93;;;;;;;;;;4930301;29;20061;-68
2021/03/16 19:36:40;;;;;;;10.60;5.95;;;;;;;;;;4957359;29;20037;-68
2021/03/16 19:39:06;;;;;;;14.68;6.15;;;;;;;;;;4957459;28;20078;-68
2021/03/16 19:41:32;;;;;;;11.82;5.72;;;;;;;;;;4939590;29;20027;-68
2021/03/16 19:43:58;;;;;;;10.40;5.88;;;;;;;;;;4956347;28;20031;-69
2021/03/16 19:46:25;;;;;;;13.88;6.07;;;;;;;;;;4957078;29;20414;-70
2021/03/16 19:48:54;;;;;;;11.70;5.50;;;;;;;;;;4940382;29;20031;-67
2021/03/16 19:51:20;;;;;;;11.88;6.30;;;;;;;;;;4956751;29;20360;-66
2021/03/16 19:53:46;;;;;;;10.05;6.10;;;;;;;;;;4957618;29;20028;-68
2021/03/16 19:56:12;;;;;;;9.10;5.78;;;;;;;;;;4957099;29;20046;-69
2021/03/16 19:58:38;;;;;;;8.60;5.95;;;;;;;;;;4957555;29;20102;-70
2021/03/16 20:01:04;;;;;;;10.52;5.82;;;;;;;;;;4940355;29;20158;-68
2021/03/16 20:03:30;;;;;;;12.77;5.88;;;;;;;;;;4956876;29;20050;-68
2021/03/16 20:05:56;;;;;;;10.50;5.45;;;;;;;;;;4940200;29;20463;-69
2021/03/16 20:08:22;;;;;;;8.43;4.80;;;;;;;;;;4939980;29;20027;-69
2021/03/16 20:10:49;;;;;;;9.88;5.90;;;;;;;;;;4938942;29;20030;-69
2021/03/16 20:13:15;;;;;;;8.05;4.88;;;;;;;;;;4957397;29;20102;-67
2021/03/16 20:15:41;;;;;;;10.55;6.30;;;;;;;;;;4953566;29;20378;-68
2021/03/16 20:18:07;;;;;;;8.02;5.55;;;;;;;;;;4957004;29;20035;-68
2021/03/16 20:20:33;;;;;;;9.35;5.63;;;;;;;;;;4957248;29;20090;-69
2021/03/16 20:22:59;;;;;;;10.45;5.80;;;;;;;;;;4940222;29;20027;-70
2021/03/16 20:25:25;;;;;;;10.65;5.57;;;;;;;;;;4957496;29;20031;-68
2021/03/16 20:27:51;;;;;;;8.02;5.40;;;;;;;;;;4939899;29;20023;-68
2021/03/16 20:30:18;;;;;;;8.07;5.30;;;;;;;;;;4956223;29;20027;-68
2021/03/16 20:32:44;;;;;;;11.32;4.90;;;;;;;;;;4956012;29;20031;-68
2021/03/16 20:35:11;;;;;;;9.93;6.60;;;;;;;;;;4954099;29;20031;-65
2021/03/16 20:37:38;;;;;;;11.05;5.35;;;;;;;;;;4955080;29;20027;-68
2021/03/16 20:40:05;;;;;;;8.32;5.50;;;;;;;;;;4954819;29;20020;-68
2021/03/16 20:42:31;;;;;;;10.23;5.47;;;;;;;;;;4955261;29;20051;-66
2021/03/16 20:44:58;;;;;;;9.38;5.70;;;;;;;;;;4955048;29;20035;-68
2021/03/16 20:47:24;;;;;;;9.75;5.80;;;;;;;;;;4956002;29;20023;-69
2021/03/16 20:49:51;;;;;;;7.35;4.97;;;;;;;;;;4954555;29;20122;-67
2021/03/16 20:52:18;;;;;;;9.65;5.70;;;;;;;;;;4954326;29;20039;-68
2021/03/16 20:54:45;;;;;;;8.18;5.63;;;;;;;;;;4939324;29;20467;-69
2021/03/16 20:57:11;;;;;;;8.75;5.72;;;;;;;;;;4939698;29;20027;-68
2021/03/16 20:59:38;;;;;;;13.85;6.35;;;;;;;;;;4952883;29;20035;-68
2021/03/16 21:02:04;;;;;;;9.30;6.00;;;;;;;;;;4955553;29;20023;-69
2021/03/16 21:04:30;;;;;;;13.05;5.40;;;;;;;;;;4939226;29;20065;-66
2021/03/16 21:06:56;;;;;;;9.63;5.97;;;;;;;;;;4939155;29;20031;-66